sensor_id;sensor_type;location;lat;lon;timestamp;temperature;humidity
21104;DHT22;10710;53.398;-1.514;2023-07-28T00:02:16;16.40;99.90
21104;DHT22;10710;53.398;-1.514;2023-07-28T00:05:00;16.20;99.90
21104;DHT22;10710;53.398;-1.514;2023-07-28T00:07:44;16.10;99.90
21104;DHT22;10710;53.398;-1.514;2023-07-28T00:10:28;16.00;99.90
21104;DHT22;10710;53.398;-1.514;2023-07-28T00:13:13;16.00;99.90
21104;DHT22;10710;53.398;-1.514;2023-07-28T00:15:57;16.10;99.90
21104;DHT22;10710;53.398;-1.514;2023-07-28T00:18:41;16.10;99.90
21104;DHT22;10710;53.398;-1.514;2023-07-28T00:21:26;16.10;99.90
21104;DHT22;10710;53.398;-1.514;2023-07-28T00:24:11;16.20;99.90
21104;DHT22;10710;53.398;-1.514;2023-07-28T00:26:55;16.10;99.90
21104;DHT22;10710;53.398;-1.514;2023-07-28T00:29:39;16.10;99.90
21104;DHT22;10710;53.398;-1.514;2023-07-28T00:32:23;16.10;99.90
21104;DHT22;10710;53.398;-1.514;2023-07-28T00:35:07;16.10;99.90
21104;DHT22;10710;53.398;-1.514;2023-07-28T00:37:52;16.10;99.90
21104;DHT22;10710;53.398;-1.514;2023-07-28T00:40:36;16.10;99.90
21104;DHT22;10710;53.398;-1.514;2023-07-28T00:43:20;15.90;99.90
21104;DHT22;10710;53.398;-1.514;2023-07-28T00:46:04;15.80;99.90
21104;DHT22;10710;53.398;-1.514;2023-07-28T00:48:49;15.70;99.90
21104;DHT22;10710;53.398;-1.514;2023-07-28T00:51:35;15.50;99.90
21104;DHT22;10710;53.398;-1.514;2023-07-28T00:54:19;15.60;99.90
21104;DHT22;10710;53.398;-1.514;2023-07-28T00:57:04;15.60;99.90
21104;DHT22;10710;53.398;-1.514;2023-07-28T00:59:49;15.70;99.90
21104;DHT22;10710;53.398;-1.514;2023-07-28T01:02:33;15.80;99.90
21104;DHT22;10710;53.398;-1.514;2023-07-28T01:05:18;15.90;99.90
21104;DHT22;10710;53.398;-1.514;2023-07-28T01:08:07;15.80;99.90
21104;DHT22;10710;53.398;-1.514;2023-07-28T01:10:54;15.90;99.90
21104;DHT22;10710;53.398;-1.514;2023-07-28T01:13:39;15.90;99.90
21104;DHT22;10710;53.398;-1.514;2023-07-28T01:16:24;15.90;99.90
21104;DHT22;10710;53.398;-1.514;2023-07-28T01:19:09;15.80;99.90
21104;DHT22;10710;53.398;-1.514;2023-07-28T01:22:16;15.70;99.90
21104;DHT22;10710;53.398;-1.514;2023-07-28T01:28:15;15.60;99.90
21104;DHT22;10710;53.398;-1.514;2023-07-28T01:31:03;15.60;99.90
21104;DHT22;10710;53.398;-1.514;2023-07-28T01:33:47;15.70;99.90
21104;DHT22;10710;53.398;-1.514;2023-07-28T01:36:31;15.70;99.90
21104;DHT22;10710;53.398;-1.514;2023-07-28T01:39:15;15.60;99.90
21104;DHT22;10710;53.398;-1.514;2023-07-28T01:41:59;15.50;99.90
21104;DHT22;10710;53.398;-1.514;2023-07-28T01:44:43;15.40;99.90
21104;DHT22;10710;53.398;-1.514;2023-07-28T01:47:28;15.30;99.90
21104;DHT22;10710;53.398;-1.514;2023-07-28T01:50:13;15.40;99.90
21104;DHT22;10710;53.398;-1.514;2023-07-28T01:52:58;15.50;99.90
21104;DHT22;10710;53.398;-1.514;2023-07-28T01:55:42;15.50;99.90
21104;DHT22;10710;53.398;-1.514;2023-07-28T01:58:26;15.50;99.90
21104;DHT22;10710;53.398;-1.514;2023-07-28T02:01:13;15.50;99.90
21104;DHT22;10710;53.398;-1.514;2023-07-28T02:03:57;15.50;99.90
21104;DHT22;10710;53.398;-1.514;2023-07-28T02:06:41;15.30;99.90
21104;DHT22;10710;53.398;-1.514;2023-07-28T02:09:26;15.30;99.90
21104;DHT22;10710;53.398;-1.514;2023-07-28T02:12:10;15.30;99.90
21104;DHT22;10710;53.398;-1.514;2023-07-28T02:14:54;15.30;99.90
21104;DHT22;10710;53.398;-1.514;2023-07-28T02:17:39;15.20;99.90
21104;DHT22;10710;53.398;-1.514;2023-07-28T02:20:24;15.30;99.90
21104;DHT22;10710;53.398;-1.514;2023-07-28T02:23:08;15.30;99.90
21104;DHT22;10710;53.398;-1.514;2023-07-28T02:25:53;15.40;99.90
21104;DHT22;10710;53.398;-1.514;2023-07-28T02:28:37;15.40;99.90
21104;DHT22;10710;53.398;-1.514;2023-07-28T02:31:21;15.30;99.90
21104;DHT22;10710;53.398;-1.514;2023-07-28T02:34:05;15.20;99.90
21104;DHT22;10710;53.398;-1.514;2023-07-28T02:36:50;15.10;99.90
21104;DHT22;10710;53.398;-1.514;2023-07-28T02:39:34;15.10;99.90
21104;DHT22;10710;53.398;-1.514;2023-07-28T02:42:18;15.00;99.90
21104;DHT22;10710;53.398;-1.514;2023-07-28T02:45:03;14.90;99.90
21104;DHT22;10710;53.398;-1.514;2023-07-28T02:47:47;15.00;99.90
21104;DHT22;10710;53.398;-1.514;2023-07-28T02:50:31;15.00;99.90
21104;DHT22;10710;53.398;-1.514;2023-07-28T02:53:15;15.00;99.90
21104;DHT22;10710;53.398;-1.514;2023-07-28T02:56:00;14.90;99.90
21104;DHT22;10710;53.398;-1.514;2023-07-28T02:58:44;14.80;99.90
21104;DHT22;10710;53.398;-1.514;2023-07-28T03:01:32;14.90;99.90
21104;DHT22;10710;53.398;-1.514;2023-07-28T03:04:18;14.80;99.90
21104;DHT22;10710;53.398;-1.514;2023-07-28T03:07:03;14.80;99.90
21104;DHT22;10710;53.398;-1.514;2023-07-28T03:09:47;14.80;99.90
21104;DHT22;10710;53.398;-1.514;2023-07-28T03:12:31;14.80;99.90
21104;DHT22;10710;53.398;-1.514;2023-07-28T03:15:15;14.80;99.90
21104;DHT22;10710;53.398;-1.514;2023-07-28T03:17:59;14.80;99.90
21104;DHT22;10710;53.398;-1.514;2023-07-28T03:20:45;14.80;99.90
21104;DHT22;10710;53.398;-1.514;2023-07-28T03:23:30;14.80;99.90
21104;DHT22;10710;53.398;-1.514;2023-07-28T03:26:14;14.70;99.90
21104;DHT22;10710;53.398;-1.514;2023-07-28T03:28:58;14.50;99.90
21104;DHT22;10710;53.398;-1.514;2023-07-28T03:31:42;14.50;99.90
21104;DHT22;10710;53.398;-1.514;2023-07-28T03:34:26;14.50;99.90
21104;DHT22;10710;53.398;-1.514;2023-07-28T03:37:11;14.50;99.90
21104;DHT22;10710;53.398;-1.514;2023-07-28T03:39:55;14.60;99.90
21104;DHT22;10710;53.398;-1.514;2023-07-28T03:42:39;14.60;99.90
21104;DHT22;10710;53.398;-1.514;2023-07-28T03:45:23;14.70;99.90
21104;DHT22;10710;53.398;-1.514;2023-07-28T03:48:08;14.70;99.90
21104;DHT22;10710;53.398;-1.514;2023-07-28T03:50:52;14.70;99.90
21104;DHT22;10710;53.398;-1.514;2023-07-28T03:53:36;14.80;99.90
21104;DHT22;10710;53.398;-1.514;2023-07-28T03:56:20;14.70;99.90
21104;DHT22;10710;53.398;-1.514;2023-07-28T03:59:04;14.70;99.90
21104;DHT22;10710;53.398;-1.514;2023-07-28T04:01:50;14.70;99.90
21104;DHT22;10710;53.398;-1.514;2023-07-28T04:04:35;14.80;99.90
21104;DHT22;10710;53.398;-1.514;2023-07-28T04:07:19;14.50;99.90
21104;DHT22;10710;53.398;-1.514;2023-07-28T04:10:04;14.40;99.90
21104;DHT22;10710;53.398;-1.514;2023-07-28T04:12:48;14.40;99.90
21104;DHT22;10710;53.398;-1.514;2023-07-28T04:15:32;14.40;99.90
21104;DHT22;10710;53.398;-1.514;2023-07-28T04:18:16;14.50;99.90
21104;DHT22;10710;53.398;-1.514;2023-07-28T04:21:02;14.60;99.90
21104;DHT22;10710;53.398;-1.514;2023-07-28T04:23:46;14.60;99.90
21104;DHT22;10710;53.398;-1.514;2023-07-28T04:26:30;14.60;99.90
21104;DHT22;10710;53.398;-1.514;2023-07-28T04:29:14;14.60;99.90
21104;DHT22;10710;53.398;-1.514;2023-07-28T04:31:59;14.70;99.90
21104;DHT22;10710;53.398;-1.514;2023-07-28T04:34:43;14.60;99.90
21104;DHT22;10710;53.398;-1.514;2023-07-28T04:37:27;14.70;99.90
21104;DHT22;10710;53.398;-1.514;2023-07-28T04:40:11;14.70;99.90
21104;DHT22;10710;53.398;-1.514;2023-07-28T04:42:56;14.80;99.90
21104;DHT22;10710;53.398;-1.514;2023-07-28T04:45:40;14.80;99.90
21104;DHT22;10710;53.398;-1.514;2023-07-28T04:48:24;14.90;99.90
21104;DHT22;10710;53.398;-1.514;2023-07-28T04:51:08;14.70;99.90
21104;DHT22;10710;53.398;-1.514;2023-07-28T04:53:53;14.70;99.90
21104;DHT22;10710;53.398;-1.514;2023-07-28T04:56:37;14.80;99.90
21104;DHT22;10710;53.398;-1.514;2023-07-28T04:59:21;14.90;99.90
21104;DHT22;10710;53.398;-1.514;2023-07-28T05:02:06;15.00;99.90
21104;DHT22;10710;53.398;-1.514;2023-07-28T05:04:50;15.00;99.90
21104;DHT22;10710;53.398;-1.514;2023-07-28T05:07:34;15.20;99.90
21104;DHT22;10710;53.398;-1.514;2023-07-28T05:10:18;15.30;99.90
21104;DHT22;10710;53.398;-1.514;2023-07-28T05:13:02;15.50;99.90
21104;DHT22;10710;53.398;-1.514;2023-07-28T05:15:48;15.70;99.90
21104;DHT22;10710;53.398;-1.514;2023-07-28T05:18:32;15.80;99.90
21104;DHT22;10710;53.398;-1.514;2023-07-28T05:21:17;15.90;99.90
21104;DHT22;10710;53.398;-1.514;2023-07-28T05:24:01;16.10;99.90
21104;DHT22;10710;53.398;-1.514;2023-07-28T05:26:45;16.10;99.90
21104;DHT22;10710;53.398;-1.514;2023-07-28T05:29:29;16.20;99.90
21104;DHT22;10710;53.398;-1.514;2023-07-28T05:32:13;16.20;99.90
21104;DHT22;10710;53.398;-1.514;2023-07-28T05:34:57;16.20;99.90
21104;DHT22;10710;53.398;-1.514;2023-07-28T05:37:42;16.40;99.90
21104;DHT22;10710;53.398;-1.514;2023-07-28T05:40:26;16.50;99.90
21104;DHT22;10710;53.398;-1.514;2023-07-28T05:43:10;16.60;99.90
21104;DHT22;10710;53.398;-1.514;2023-07-28T05:45:56;16.60;99.90
21104;DHT22;10710;53.398;-1.514;2023-07-28T05:48:40;16.60;99.90
21104;DHT22;10710;53.398;-1.514;2023-07-28T05:51:24;16.60;99.90
21104;DHT22;10710;53.398;-1.514;2023-07-28T05:54:08;16.80;99.90
21104;DHT22;10710;53.398;-1.514;2023-07-28T05:56:52;16.90;99.90
21104;DHT22;10710;53.398;-1.514;2023-07-28T05:59:37;17.10;99.90
21104;DHT22;10710;53.398;-1.514;2023-07-28T06:02:21;17.00;99.90
21104;DHT22;10710;53.398;-1.514;2023-07-28T06:05:05;16.90;99.90
21104;DHT22;10710;53.398;-1.514;2023-07-28T06:07:50;16.90;99.90
21104;DHT22;10710;53.398;-1.514;2023-07-28T06:10:35;17.00;99.90
21104;DHT22;10710;53.398;-1.514;2023-07-28T06:13:19;17.00;99.90
21104;DHT22;10710;53.398;-1.514;2023-07-28T06:16:04;17.20;99.90
21104;DHT22;10710;53.398;-1.514;2023-07-28T06:18:48;17.30;99.90
21104;DHT22;10710;53.398;-1.514;2023-07-28T06:21:33;17.10;99.90
21104;DHT22;10710;53.398;-1.514;2023-07-28T06:24:17;17.20;99.90
21104;DHT22;10710;53.398;-1.514;2023-07-28T06:27:02;17.40;99.90
21104;DHT22;10710;53.398;-1.514;2023-07-28T06:29:51;17.70;99.90
21104;DHT22;10710;53.398;-1.514;2023-07-28T06:32:35;17.80;99.90
21104;DHT22;10710;53.398;-1.514;2023-07-28T06:35:19;18.00;99.90
21104;DHT22;10710;53.398;-1.514;2023-07-28T06:38:04;18.10;99.90
21104;DHT22;10710;53.398;-1.514;2023-07-28T06:40:48;18.20;99.90
21104;DHT22;10710;53.398;-1.514;2023-07-28T06:43:33;18.30;99.90
21104;DHT22;10710;53.398;-1.514;2023-07-28T06:46:17;18.40;99.90
21104;DHT22;10710;53.398;-1.514;2023-07-28T06:49:01;18.50;99.90
21104;DHT22;10710;53.398;-1.514;2023-07-28T06:51:45;18.50;99.90
21104;DHT22;10710;53.398;-1.514;2023-07-28T06:54:30;18.50;99.90
21104;DHT22;10710;53.398;-1.514;2023-07-28T06:57:14;18.60;99.90
21104;DHT22;10710;53.398;-1.514;2023-07-28T06:59:59;18.80;99.90
21104;DHT22;10710;53.398;-1.514;2023-07-28T07:02:44;18.80;99.90
21104;DHT22;10710;53.398;-1.514;2023-07-28T07:05:29;19.00;99.90
21104;DHT22;10710;53.398;-1.514;2023-07-28T07:08:13;19.40;99.90
21104;DHT22;10710;53.398;-1.514;2023-07-28T07:10:57;19.60;99.90
21104;DHT22;10710;53.398;-1.514;2023-07-28T07:13:41;19.50;99.90
21104;DHT22;10710;53.398;-1.514;2023-07-28T07:16:25;19.60;99.90
21104;DHT22;10710;53.398;-1.514;2023-07-28T07:19:10;19.50;99.90
21104;DHT22;10710;53.398;-1.514;2023-07-28T07:21:54;19.70;99.90
21104;DHT22;10710;53.398;-1.514;2023-07-28T07:24:38;19.50;99.90
21104;DHT22;10710;53.398;-1.514;2023-07-28T07:27:24;19.20;99.90
21104;DHT22;10710;53.398;-1.514;2023-07-28T07:30:09;19.40;99.90
21104;DHT22;10710;53.398;-1.514;2023-07-28T07:32:53;19.50;99.90
21104;DHT22;10710;53.398;-1.514;2023-07-28T07:35:37;19.60;99.90
21104;DHT22;10710;53.398;-1.514;2023-07-28T07:38:22;19.80;99.90
21104;DHT22;10710;53.398;-1.514;2023-07-28T07:41:07;19.90;99.90
21104;DHT22;10710;53.398;-1.514;2023-07-28T07:43:54;20.20;99.90
21104;DHT22;10710;53.398;-1.514;2023-07-28T07:46:38;20.60;99.90
21104;DHT22;10710;53.398;-1.514;2023-07-28T07:49:23;20.70;99.90
21104;DHT22;10710;53.398;-1.514;2023-07-28T07:52:08;20.80;99.90
21104;DHT22;10710;53.398;-1.514;2023-07-28T07:54:53;20.90;99.90
21104;DHT22;10710;53.398;-1.514;2023-07-28T07:57:37;20.70;99.90
21104;DHT22;10710;53.398;-1.514;2023-07-28T08:00:22;20.30;99.90
21104;DHT22;10710;53.398;-1.514;2023-07-28T08:03:06;20.50;99.90
21104;DHT22;10710;53.398;-1.514;2023-07-28T08:05:51;20.40;99.90
21104;DHT22;10710;53.398;-1.514;2023-07-28T08:08:35;20.50;99.90
21104;DHT22;10710;53.398;-1.514;2023-07-28T08:11:19;20.40;99.90
21104;DHT22;10710;53.398;-1.514;2023-07-28T08:14:03;20.20;99.90
21104;DHT22;10710;53.398;-1.514;2023-07-28T08:16:47;20.40;99.90
21104;DHT22;10710;53.398;-1.514;2023-07-28T08:19:31;20.50;99.90
21104;DHT22;10710;53.398;-1.514;2023-07-28T08:22:16;20.60;99.90
21104;DHT22;10710;53.398;-1.514;2023-07-28T08:25:00;20.50;99.90
21104;DHT22;10710;53.398;-1.514;2023-07-28T08:27:44;20.50;99.90
21104;DHT22;10710;53.398;-1.514;2023-07-28T08:30:29;20.60;99.90
21104;DHT22;10710;53.398;-1.514;2023-07-28T08:33:13;20.80;99.90
21104;DHT22;10710;53.398;-1.514;2023-07-28T08:35:57;20.50;99.90
21104;DHT22;10710;53.398;-1.514;2023-07-28T08:38:42;20.60;99.90
21104;DHT22;10710;53.398;-1.514;2023-07-28T08:41:26;20.70;99.90
21104;DHT22;10710;53.398;-1.514;2023-07-28T08:44:10;20.90;99.90
21104;DHT22;10710;53.398;-1.514;2023-07-28T08:46:54;20.90;99.90
21104;DHT22;10710;53.398;-1.514;2023-07-28T08:49:38;20.80;99.90
21104;DHT22;10710;53.398;-1.514;2023-07-28T08:52:22;21.00;99.90
21104;DHT22;10710;53.398;-1.514;2023-07-28T08:55:08;21.10;99.90
21104;DHT22;10710;53.398;-1.514;2023-07-28T08:57:53;21.20;99.90
21104;DHT22;10710;53.398;-1.514;2023-07-28T09:00:37;21.30;99.90
21104;DHT22;10710;53.398;-1.514;2023-07-28T09:03:22;21.30;99.90
21104;DHT22;10710;53.398;-1.514;2023-07-28T09:06:07;20.90;99.90
21104;DHT22;10710;53.398;-1.514;2023-07-28T09:08:56;20.80;99.90
21104;DHT22;10710;53.398;-1.514;2023-07-28T09:11:49;20.90;99.90
21104;DHT22;10710;53.398;-1.514;2023-07-28T09:14:36;21.10;99.90
21104;DHT22;10710;53.398;-1.514;2023-07-28T09:17:23;21.30;99.90
21104;DHT22;10710;53.398;-1.514;2023-07-28T09:20:13;21.10;99.90
21104;DHT22;10710;53.398;-1.514;2023-07-28T09:22:58;21.00;99.90
21104;DHT22;10710;53.398;-1.514;2023-07-28T09:25:42;21.00;99.90
21104;DHT22;10710;53.398;-1.514;2023-07-28T09:28:45;21.00;99.90
21104;DHT22;10710;53.398;-1.514;2023-07-28T09:31:29;21.00;99.90
21104;DHT22;10710;53.398;-1.514;2023-07-28T09:34:26;20.80;99.90
21104;DHT22;10710;53.398;-1.514;2023-07-28T09:37:12;20.60;99.90
21104;DHT22;10710;53.398;-1.514;2023-07-28T09:39:57;20.70;99.90
21104;DHT22;10710;53.398;-1.514;2023-07-28T09:42:43;20.60;99.90
21104;DHT22;10710;53.398;-1.514;2023-07-28T09:45:29;20.40;99.90
21104;DHT22;10710;53.398;-1.514;2023-07-28T09:48:15;20.30;99.90
21104;DHT22;10710;53.398;-1.514;2023-07-28T09:51:12;20.30;99.90
21104;DHT22;10710;53.398;-1.514;2023-07-28T09:54:15;20.10;99.90
21104;DHT22;10710;53.398;-1.514;2023-07-28T09:57:01;19.90;99.90
21104;DHT22;10710;53.398;-1.514;2023-07-28T09:59:48;19.80;99.90
21104;DHT22;10710;53.398;-1.514;2023-07-28T10:02:33;19.70;99.90
21104;DHT22;10710;53.398;-1.514;2023-07-28T10:05:19;19.70;99.90
21104;DHT22;10710;53.398;-1.514;2023-07-28T10:08:05;19.90;99.90
21104;DHT22;10710;53.398;-1.514;2023-07-28T10:10:50;20.20;99.90
21104;DHT22;10710;53.398;-1.514;2023-07-28T10:13:40;20.30;99.90
21104;DHT22;10710;53.398;-1.514;2023-07-28T10:16:44;20.20;99.90
21104;DHT22;10710;53.398;-1.514;2023-07-28T10:19:29;20.20;99.90
21104;DHT22;10710;53.398;-1.514;2023-07-28T10:22:13;20.20;99.90
21104;DHT22;10710;53.398;-1.514;2023-07-28T10:25:01;20.20;99.90
21104;DHT22;10710;53.398;-1.514;2023-07-28T10:27:46;20.40;99.90
21104;DHT22;10710;53.398;-1.514;2023-07-28T10:30:38;20.50;99.90
21104;DHT22;10710;53.398;-1.514;2023-07-28T10:39:15;20.70;99.90
21104;DHT22;10710;53.398;-1.514;2023-07-28T10:42:02;20.70;99.90
21104;DHT22;10710;53.398;-1.514;2023-07-28T10:44:47;20.60;99.90
21104;DHT22;10710;53.398;-1.514;2023-07-28T10:47:31;20.50;99.90
21104;DHT22;10710;53.398;-1.514;2023-07-28T10:50:17;20.60;99.90
21104;DHT22;10710;53.398;-1.514;2023-07-28T10:53:02;20.60;99.90
21104;DHT22;10710;53.398;-1.514;2023-07-28T10:55:47;20.60;99.90
21104;DHT22;10710;53.398;-1.514;2023-07-28T10:58:33;20.10;99.90
21104;DHT22;10710;53.398;-1.514;2023-07-28T11:01:21;20.20;99.90
21104;DHT22;10710;53.398;-1.514;2023-07-28T11:06:54;20.50;99.90
21104;DHT22;10710;53.398;-1.514;2023-07-28T11:09:39;20.80;99.90
21104;DHT22;10710;53.398;-1.514;2023-07-28T11:12:23;21.00;99.90
21104;DHT22;10710;53.398;-1.514;2023-07-28T11:15:08;21.10;99.90
21104;DHT22;10710;53.398;-1.514;2023-07-28T11:17:55;21.30;99.90
21104;DHT22;10710;53.398;-1.514;2023-07-28T11:20:41;21.50;99.90
21104;DHT22;10710;53.398;-1.514;2023-07-28T11:23:26;21.90;99.90
21104;DHT22;10710;53.398;-1.514;2023-07-28T11:26:10;22.00;99.90
21104;DHT22;10710;53.398;-1.514;2023-07-28T11:28:56;21.80;99.90
21104;DHT22;10710;53.398;-1.514;2023-07-28T11:31:41;21.70;99.90
21104;DHT22;10710;53.398;-1.514;2023-07-28T11:34:26;21.80;99.90
21104;DHT22;10710;53.398;-1.514;2023-07-28T11:37:11;22.20;99.90
21104;DHT22;10710;53.398;-1.514;2023-07-28T11:39:56;22.60;99.90
21104;DHT22;10710;53.398;-1.514;2023-07-28T11:42:50;22.70;99.90
21104;DHT22;10710;53.398;-1.514;2023-07-28T11:45:35;22.90;99.90
21104;DHT22;10710;53.398;-1.514;2023-07-28T11:48:19;22.90;99.90
21104;DHT22;10710;53.398;-1.514;2023-07-28T11:51:03;23.20;99.90
21104;DHT22;10710;53.398;-1.514;2023-07-28T11:53:47;23.40;99.90
21104;DHT22;10710;53.398;-1.514;2023-07-28T11:56:31;23.60;99.90
21104;DHT22;10710;53.398;-1.514;2023-07-28T11:59:17;23.40;99.90
21104;DHT22;10710;53.398;-1.514;2023-07-28T12:02:03;23.00;99.90
21104;DHT22;10710;53.398;-1.514;2023-07-28T12:04:51;23.20;99.90
21104;DHT22;10710;53.398;-1.514;2023-07-28T12:07:37;23.10;99.90
21104;DHT22;10710;53.398;-1.514;2023-07-28T12:10:23;23.10;99.90
21104;DHT22;10710;53.398;-1.514;2023-07-28T12:13:08;23.20;99.90
21104;DHT22;10710;53.398;-1.514;2023-07-28T12:15:53;23.70;99.90
21104;DHT22;10710;53.398;-1.514;2023-07-28T12:18:37;24.00;99.90
21104;DHT22;10710;53.398;-1.514;2023-07-28T12:21:21;23.90;99.90
21104;DHT22;10710;53.398;-1.514;2023-07-28T12:24:05;23.90;99.90
21104;DHT22;10710;53.398;-1.514;2023-07-28T12:26:50;23.80;99.90
21104;DHT22;10710;53.398;-1.514;2023-07-28T12:29:35;23.80;99.90
21104;DHT22;10710;53.398;-1.514;2023-07-28T12:32:19;23.90;99.90
21104;DHT22;10710;53.398;-1.514;2023-07-28T12:35:04;23.70;99.90
21104;DHT22;10710;53.398;-1.514;2023-07-28T12:37:52;23.70;99.90
21104;DHT22;10710;53.398;-1.514;2023-07-28T12:40:36;23.50;99.90
21104;DHT22;10710;53.398;-1.514;2023-07-28T12:43:21;23.80;99.90
21104;DHT22;10710;53.398;-1.514;2023-07-28T12:46:05;24.30;99.90
21104;DHT22;10710;53.398;-1.514;2023-07-28T12:48:49;24.50;99.90
21104;DHT22;10710;53.398;-1.514;2023-07-28T12:51:34;24.60;99.90
21104;DHT22;10710;53.398;-1.514;2023-07-28T12:54:18;24.70;99.90
21104;DHT22;10710;53.398;-1.514;2023-07-28T12:57:03;24.50;99.90
21104;DHT22;10710;53.398;-1.514;2023-07-28T12:59:48;24.20;99.90
21104;DHT22;10710;53.398;-1.514;2023-07-28T13:02:32;24.20;99.90
21104;DHT22;10710;53.398;-1.514;2023-07-28T13:05:16;24.50;99.90
21104;DHT22;10710;53.398;-1.514;2023-07-28T13:08:01;24.40;99.90
21104;DHT22;10710;53.398;-1.514;2023-07-28T13:10:46;24.40;99.90
21104;DHT22;10710;53.398;-1.514;2023-07-28T13:13:30;24.60;99.90
21104;DHT22;10710;53.398;-1.514;2023-07-28T13:16:15;25.10;99.90
21104;DHT22;10710;53.398;-1.514;2023-07-28T13:18:59;24.80;99.90
21104;DHT22;10710;53.398;-1.514;2023-07-28T13:21:43;24.50;99.90
21104;DHT22;10710;53.398;-1.514;2023-07-28T13:24:27;24.50;99.90
21104;DHT22;10710;53.398;-1.514;2023-07-28T13:27:11;24.70;99.90
21104;DHT22;10710;53.398;-1.514;2023-07-28T13:29:56;24.50;99.90
21104;DHT22;10710;53.398;-1.514;2023-07-28T13:32:42;24.40;99.90
21104;DHT22;10710;53.398;-1.514;2023-07-28T13:35:26;24.80;99.90
21104;DHT22;10710;53.398;-1.514;2023-07-28T13:38:10;24.80;99.90
21104;DHT22;10710;53.398;-1.514;2023-07-28T13:40:55;24.60;99.90
21104;DHT22;10710;53.398;-1.514;2023-07-28T13:43:40;24.90;99.90
21104;DHT22;10710;53.398;-1.514;2023-07-28T13:46:24;25.10;99.90
21104;DHT22;10710;53.398;-1.514;2023-07-28T13:49:09;25.60;99.90
21104;DHT22;10710;53.398;-1.514;2023-07-28T13:51:53;25.60;99.90
21104;DHT22;10710;53.398;-1.514;2023-07-28T13:54:37;26.00;99.90
21104;DHT22;10710;53.398;-1.514;2023-07-28T13:57:22;27.10;99.90
21104;DHT22;10710;53.398;-1.514;2023-07-28T14:00:07;28.10;99.90
21104;DHT22;10710;53.398;-1.514;2023-07-28T14:02:54;28.20;99.90
21104;DHT22;10710;53.398;-1.514;2023-07-28T14:05:38;28.40;99.90
21104;DHT22;10710;53.398;-1.514;2023-07-28T14:08:22;28.20;99.90
21104;DHT22;10710;53.398;-1.514;2023-07-28T14:11:06;27.80;99.90
21104;DHT22;10710;53.398;-1.514;2023-07-28T14:13:51;27.20;99.90
21104;DHT22;10710;53.398;-1.514;2023-07-28T14:16:35;27.40;99.90
21104;DHT22;10710;53.398;-1.514;2023-07-28T14:19:19;27.10;99.90
21104;DHT22;10710;53.398;-1.514;2023-07-28T14:22:04;26.90;99.90
21104;DHT22;10710;53.398;-1.514;2023-07-28T14:24:48;26.20;99.90
21104;DHT22;10710;53.398;-1.514;2023-07-28T14:27:32;25.80;99.90
21104;DHT22;10710;53.398;-1.514;2023-07-28T14:30:17;26.20;99.90
21104;DHT22;10710;53.398;-1.514;2023-07-28T14:33:01;26.00;99.90
21104;DHT22;10710;53.398;-1.514;2023-07-28T14:35:48;25.80;99.90
21104;DHT22;10710;53.398;-1.514;2023-07-28T14:38:33;26.20;99.90
21104;DHT22;10710;53.398;-1.514;2023-07-28T14:41:17;27.00;99.90
21104;DHT22;10710;53.398;-1.514;2023-07-28T14:44:01;28.60;99.90
21104;DHT22;10710;53.398;-1.514;2023-07-28T14:46:45;29.20;99.90
21104;DHT22;10710;53.398;-1.514;2023-07-28T14:49:31;28.60;99.90
21104;DHT22;10710;53.398;-1.514;2023-07-28T14:52:15;28.80;99.90
21104;DHT22;10710;53.398;-1.514;2023-07-28T14:54:59;28.20;99.90
21104;DHT22;10710;53.398;-1.514;2023-07-28T14:57:43;27.60;99.90
21104;DHT22;10710;53.398;-1.514;2023-07-28T15:00:27;26.80;99.90
21104;DHT22;10710;53.398;-1.514;2023-07-28T15:03:12;26.60;99.90
21104;DHT22;10710;53.398;-1.514;2023-07-28T15:05:56;26.30;99.90
21104;DHT22;10710;53.398;-1.514;2023-07-28T15:08:40;26.10;99.90
21104;DHT22;10710;53.398;-1.514;2023-07-28T15:11:25;26.40;99.90
21104;DHT22;10710;53.398;-1.514;2023-07-28T15:14:10;26.40;99.90
21104;DHT22;10710;53.398;-1.514;2023-07-28T15:16:55;26.30;99.90
21104;DHT22;10710;53.398;-1.514;2023-07-28T15:19:39;26.50;99.90
21104;DHT22;10710;53.398;-1.514;2023-07-28T15:22:23;27.20;99.90
21104;DHT22;10710;53.398;-1.514;2023-07-28T15:25:08;27.70;99.90
21104;DHT22;10710;53.398;-1.514;2023-07-28T15:27:52;27.80;99.90
21104;DHT22;10710;53.398;-1.514;2023-07-28T15:30:36;28.20;99.90
21104;DHT22;10710;53.398;-1.514;2023-07-28T15:33:21;27.20;99.90
21104;DHT22;10710;53.398;-1.514;2023-07-28T15:36:09;28.00;99.90
21104;DHT22;10710;53.398;-1.514;2023-07-28T15:38:54;28.70;99.90
21104;DHT22;10710;53.398;-1.514;2023-07-28T15:41:38;28.70;99.90
21104;DHT22;10710;53.398;-1.514;2023-07-28T15:44:23;29.30;99.90
21104;DHT22;10710;53.398;-1.514;2023-07-28T15:47:08;29.60;99.90
21104;DHT22;10710;53.398;-1.514;2023-07-28T15:49:52;29.70;99.90
21104;DHT22;10710;53.398;-1.514;2023-07-28T15:52:37;29.00;99.90
21104;DHT22;10710;53.398;-1.514;2023-07-28T15:55:22;28.30;99.90
21104;DHT22;10710;53.398;-1.514;2023-07-28T15:58:06;27.30;99.90
21104;DHT22;10710;53.398;-1.514;2023-07-28T16:00:50;26.60;99.90
21104;DHT22;10710;53.398;-1.514;2023-07-28T16:03:34;26.20;99.90
21104;DHT22;10710;53.398;-1.514;2023-07-28T16:06:18;26.20;99.90
21104;DHT22;10710;53.398;-1.514;2023-07-28T16:09:03;26.80;99.90
21104;DHT22;10710;53.398;-1.514;2023-07-28T16:11:47;26.90;99.90
21104;DHT22;10710;53.398;-1.514;2023-07-28T16:14:31;26.60;99.90
21104;DHT22;10710;53.398;-1.514;2023-07-28T16:17:16;26.20;99.90
21104;DHT22;10710;53.398;-1.514;2023-07-28T16:20:00;25.70;99.90
21104;DHT22;10710;53.398;-1.514;2023-07-28T16:22:44;25.30;99.90
21104;DHT22;10710;53.398;-1.514;2023-07-28T16:25:29;25.10;99.90
21104;DHT22;10710;53.398;-1.514;2023-07-28T16:28:14;24.90;99.90
21104;DHT22;10710;53.398;-1.514;2023-07-28T16:30:58;24.80;99.90
21104;DHT22;10710;53.398;-1.514;2023-07-28T16:33:43;24.90;99.90
21104;DHT22;10710;53.398;-1.514;2023-07-28T16:36:27;24.90;99.90
21104;DHT22;10710;53.398;-1.514;2023-07-28T16:39:11;25.00;99.90
21104;DHT22;10710;53.398;-1.514;2023-07-28T16:41:56;25.10;99.90
21104;DHT22;10710;53.398;-1.514;2023-07-28T16:44:40;25.30;99.90
21104;DHT22;10710;53.398;-1.514;2023-07-28T16:47:25;25.70;99.90
21104;DHT22;10710;53.398;-1.514;2023-07-28T16:50:09;25.70;99.90
21104;DHT22;10710;53.398;-1.514;2023-07-28T16:52:54;25.90;99.90
21104;DHT22;10710;53.398;-1.514;2023-07-28T16:55:38;25.80;99.90
21104;DHT22;10710;53.398;-1.514;2023-07-28T16:58:22;25.80;99.90
21104;DHT22;10710;53.398;-1.514;2023-07-28T17:01:06;25.60;99.90
21104;DHT22;10710;53.398;-1.514;2023-07-28T17:03:51;25.20;99.90
21104;DHT22;10710;53.398;-1.514;2023-07-28T17:06:35;25.20;99.90
21104;DHT22;10710;53.398;-1.514;2023-07-28T17:09:19;25.70;99.90
21104;DHT22;10710;53.398;-1.514;2023-07-28T17:12:03;25.70;99.90
21104;DHT22;10710;53.398;-1.514;2023-07-28T17:14:48;25.70;99.90
21104;DHT22;10710;53.398;-1.514;2023-07-28T17:17:32;25.60;99.90